createdAt,value
2022-08-29T00:04:22.720Z,44.14
2022-08-29T00:09:24.109Z,44.00
2022-08-29T00:14:25.456Z,44.25
2022-08-29T00:19:27.536Z,44.54
2022-08-29T00:24:28.986Z,44.44
2022-08-29T00:29:30.290Z,43.98
2022-08-29T00:34:31.588Z,44.23
2022-08-29T00:39:33.050Z,44.51
2022-08-29T00:44:34.574Z,44.03
2022-08-29T00:49:49.621Z,45.34
2022-08-29T00:54:53.714Z,45.41
2022-08-29T00:59:55.242Z,45.54
2022-08-29T01:04:57.769Z,45.63
2022-08-29T01:09:59.238Z,45.64
2022-08-29T01:15:09.711Z,45.55
2022-08-29T01:20:32.518Z,45.37
2022-08-29T01:25:39.231Z,45.49
2022-08-29T01:31:00.654Z,46.04
2022-08-29T01:36:02.187Z,46.14
2022-08-29T01:41:04.415Z,45.71
2022-08-29T01:46:05.756Z,46.93
2022-08-29T01:51:08.185Z,47.16
2022-08-29T01:56:29.781Z,46.57
2022-08-29T02:01:33.737Z,47.52
2022-08-29T02:06:36.699Z,46.73
2022-08-29T02:11:39.762Z,47.24
2022-08-29T02:16:41.247Z,47.15
2022-08-29T02:21:43.230Z,47.43
2022-08-29T02:26:44.876Z,47.27
2022-08-29T02:31:46.440Z,47.47
2022-08-29T02:36:49.151Z,47.79
2022-08-29T02:41:50.709Z,47.38
2022-08-29T02:46:52.093Z,47.29
2022-08-29T02:51:53.447Z,47.82
2022-08-29T02:56:54.871Z,47.92
2022-08-29T03:01:56.529Z,48.04
2022-08-29T03:06:57.922Z,48.59
2022-08-29T03:11:59.434Z,49.11
2022-08-29T03:17:01.689Z,48.67
2022-08-29T03:22:03.022Z,48.77
2022-08-29T03:27:04.585Z,48.90
2022-08-29T03:32:06.049Z,48.98
2022-08-29T03:37:07.422Z,49.44
2022-08-29T03:42:08.839Z,49.36
2022-08-29T03:47:10.256Z,49.41
2022-08-29T03:52:11.884Z,49.82
2022-08-29T03:57:13.226Z,49.55
2022-08-29T04:02:15.530Z,50.48
2022-08-29T04:07:17.599Z,50.33
2022-08-29T04:12:18.973Z,49.98
2022-08-29T04:17:20.312Z,50.17
2022-08-29T04:22:21.638Z,50.29
2022-08-29T04:27:23.087Z,50.67
2022-08-29T04:32:24.495Z,51.00
2022-08-29T04:37:26.112Z,51.01
2022-08-29T04:42:27.552Z,51.30
2022-08-29T04:47:28.838Z,51.85
2022-08-29T04:52:30.143Z,51.58
2022-08-29T04:57:31.740Z,52.05
2022-08-29T05:02:33.146Z,51.79
2022-08-29T05:07:35.060Z,51.98
2022-08-29T05:12:40.023Z,52.51
2022-08-29T05:17:41.732Z,53.18
2022-08-29T05:22:43.220Z,52.37
2022-08-29T05:27:44.612Z,52.27
2022-08-29T05:32:46.039Z,52.64
2022-08-29T05:37:47.569Z,52.33
2022-08-29T05:42:49.532Z,52.21
2022-08-29T05:47:50.956Z,52.74
2022-08-29T05:52:52.267Z,52.63
2022-08-29T05:57:54.428Z,52.89
2022-08-29T06:02:55.908Z,52.12
2022-08-29T06:07:57.390Z,54.01
2022-08-29T06:12:59.137Z,53.81
2022-08-29T06:18:00.627Z,51.98
2022-08-29T06:23:02.028Z,52.26
2022-08-29T06:28:03.660Z,51.31
2022-08-29T06:33:05.016Z,51.06
2022-08-29T06:38:10.755Z,52.47
2022-08-29T06:43:14.681Z,50.22
2022-08-29T06:48:16.379Z,49.45
2022-08-29T06:53:27.526Z,49.79
2022-08-29T06:58:34.984Z,50.97
2022-08-29T07:03:36.684Z,48.78
2022-08-29T07:08:43.627Z,49.72
2022-08-29T07:13:57.065Z,48.84
2022-08-29T07:18:58.770Z,48.72
2022-08-29T07:24:00.212Z,47.23
2022-08-29T07:29:05.543Z,46.63
2022-08-29T07:34:07.545Z,45.42
2022-08-29T07:39:13.154Z,45.55
2022-08-29T07:44:15.137Z,44.72
2022-08-29T07:49:16.467Z,43.74
2022-08-29T07:54:18.806Z,43.29
2022-08-29T07:59:21.753Z,43.44
2022-08-29T08:04:23.056Z,42.72
2022-08-29T08:09:25.732Z,42.51
2022-08-29T08:14:34.574Z,41.72
2022-08-29T08:19:37.790Z,41.79
2022-08-29T08:24:39.122Z,40.72
2022-08-29T08:29:40.460Z,40.08
2022-08-29T08:34:43.006Z,39.89
2022-08-29T08:39:44.516Z,40.10
2022-08-29T08:45:17.283Z,39.68
2022-08-29T08:50:34.763Z,40.38
2022-08-29T08:55:42.623Z,39.18
2022-08-29T09:00:55.155Z,39.50
2022-08-29T09:06:10.306Z,39.98
2022-08-29T09:11:45.197Z,38.47
2022-08-29T09:16:51.080Z,38.73
2022-08-29T09:21:55.295Z,37.87
2022-08-29T09:26:56.629Z,38.35
2022-08-29T09:32:17.732Z,35.50
2022-08-29T09:37:26.623Z,34.86
2022-08-29T09:42:37.993Z,33.53
2022-08-29T09:47:39.607Z,34.76
2022-08-29T09:53:01.284Z,34.40
2022-08-29T09:58:17.277Z,34.09
2022-08-29T10:03:22.357Z,33.22
2022-08-29T10:08:34.927Z,31.86
2022-08-29T10:13:47.175Z,30.21
2022-08-29T10:18:57.907Z,29.66
2022-08-29T10:24:31.034Z,24.52
2022-08-29T10:29:44.583Z,20.73
2022-08-29T10:35:29.904Z,21.59
2022-08-29T10:40:49.625Z,24.47
2022-08-29T10:46:15.922Z,24.83
2022-08-29T10:51:42.896Z,19.77
2022-08-29T10:56:48.272Z,19.15
2022-08-29T11:01:57.192Z,16.95
2022-08-29T11:07:07.706Z,15.55
2022-08-29T11:12:34.775Z,14.80
2022-08-29T11:17:40.774Z,13.84
2022-08-29T11:23:02.032Z,14.04
2022-08-29T11:28:23.627Z,15.30
2022-08-29T11:33:43.392Z,14.27
2022-08-29T11:39:15.939Z,15.86
2022-08-29T11:44:35.713Z,16.74
2022-08-29T11:49:46.768Z,15.83
2022-08-29T11:54:54.213Z,14.45
2022-08-29T11:59:57.725Z,12.49
2022-08-29T12:05:20.491Z,12.94
2022-08-29T12:10:24.470Z,12.16
2022-08-29T12:15:41.827Z,13.83
2022-08-29T12:20:46.515Z,14.00
2022-08-29T12:26:09.599Z,16.24
2022-08-29T12:31:51.288Z,17.36
2022-08-29T12:37:27.426Z,18.04
2022-08-29T12:42:38.066Z,18.87
2022-08-29T12:47:54.389Z,20.56
2022-08-29T12:53:23.207Z,20.20
2022-08-29T12:58:44.782Z,20.27
2022-08-29T13:04:05.476Z,20.92
2022-08-29T13:09:07.512Z,21.06
2022-08-29T13:14:11.888Z,20.97
2022-08-29T13:19:21.573Z,21.89
2022-08-29T13:24:22.997Z,22.06
2022-08-29T13:34:36.428Z,22.79
2022-08-29T13:39:41.802Z,23.03
2022-08-29T13:44:49.461Z,23.00
2022-08-29T13:49:55.961Z,23.83
2022-08-29T13:54:57.645Z,23.21
2022-08-29T13:59:59.120Z,23.13
2022-08-29T14:05:01.775Z,24.33
2022-08-29T14:10:06.118Z,24.09
2022-08-29T14:15:10.026Z,24.42
2022-08-29T14:20:12.780Z,24.34
2022-08-29T14:25:17.068Z,24.31
2022-08-29T14:30:20.943Z,25.20
2022-08-29T14:35:26.578Z,26.13
2022-08-29T14:40:33.993Z,25.87
2022-08-29T14:45:35.334Z,26.00
2022-08-29T14:50:36.668Z,26.49
2022-08-29T14:55:38.033Z,26.46
2022-08-29T15:00:39.385Z,26.58
2022-08-29T15:05:42.630Z,27.13
2022-08-29T15:10:46.215Z,26.72
2022-08-29T15:15:47.621Z,27.52
2022-08-29T15:20:49.337Z,26.71
2022-08-29T15:25:51.712Z,27.13
2022-08-29T15:30:53.459Z,27.51
2022-08-29T15:35:54.837Z,26.89
2022-08-29T15:40:56.269Z,27.81
2022-08-29T15:45:59.744Z,27.99
2022-08-29T15:51:01.293Z,27.52
2022-08-29T15:56:02.748Z,27.95
2022-08-29T16:01:05.161Z,27.71
2022-08-29T16:06:06.736Z,27.41
2022-08-29T16:11:08.044Z,27.75
2022-08-29T16:16:09.375Z,28.29
2022-08-29T16:21:10.913Z,28.30
2022-08-29T16:26:12.546Z,28.22
2022-08-29T16:31:14.733Z,28.41
2022-08-29T16:36:17.855Z,28.80
2022-08-29T16:41:20.386Z,28.73
2022-08-29T16:46:24.615Z,29.45
2022-08-29T16:51:27.602Z,29.03
2022-08-29T16:56:28.941Z,29.21
2022-08-29T17:01:35.512Z,29.33
2022-08-29T17:06:37.022Z,29.44
2022-08-29T17:11:38.722Z,30.39
2022-08-29T17:16:42.451Z,30.40
2022-08-29T17:21:44.484Z,32.36
2022-08-29T17:26:47.857Z,32.18
2022-08-29T17:31:49.342Z,32.56
2022-08-29T17:36:50.639Z,32.85
2022-08-29T17:41:52.416Z,33.09
2022-08-29T17:46:53.779Z,33.34
2022-08-29T17:51:56.429Z,33.19
2022-08-29T17:56:59.918Z,33.08
2022-08-29T18:02:02.485Z,33.47
2022-08-29T18:07:04.109Z,32.60
2022-08-29T18:12:05.959Z,33.42
2022-08-29T18:17:07.711Z,33.87
2022-08-29T18:22:09.200Z,34.07
2022-08-29T18:27:10.562Z,33.58
2022-08-29T18:32:11.976Z,33.48
2022-08-29T18:37:13.863Z,33.41
2022-08-29T18:42:36.716Z,34.14
2022-08-29T18:47:37.136Z,33.04
2022-08-29T18:52:38.458Z,33.78
2022-08-29T18:57:39.792Z,33.64
2022-08-29T19:02:41.310Z,33.88
2022-08-29T19:07:42.753Z,34.07
2022-08-29T19:12:44.140Z,34.76
2022-08-29T19:17:48.462Z,34.26
2022-08-29T19:22:50.201Z,34.33
2022-08-29T19:27:51.666Z,34.92
2022-08-29T19:32:56.476Z,34.39
2022-08-29T19:37:57.875Z,34.96
2022-08-29T19:43:00.434Z,35.57
2022-08-29T19:48:02.014Z,35.50
2022-08-29T19:53:03.370Z,35.93
2022-08-29T19:58:05.370Z,36.72
2022-08-29T20:03:07.733Z,36.56
2022-08-29T20:08:09.120Z,36.23
2022-08-29T20:13:11.419Z,36.89
2022-08-29T20:18:13.480Z,35.91
2022-08-29T20:23:14.941Z,35.32
2022-08-29T20:28:16.631Z,36.19
2022-08-29T20:33:18.625Z,36.80
2022-08-29T20:38:20.064Z,36.09
2022-08-29T20:43:21.411Z,36.51
2022-08-29T20:48:22.774Z,36.17
2022-08-29T20:53:31.549Z,36.35
2022-08-29T20:58:34.476Z,36.27
2022-08-29T21:03:54.586Z,36.70
2022-08-29T21:08:55.878Z,37.97
2022-08-29T21:13:57.528Z,38.24
2022-08-29T21:18:58.833Z,37.69
2022-08-29T21:24:01.150Z,38.46
2022-08-29T21:29:04.581Z,38.80
2022-08-29T21:34:07.460Z,37.80
2022-08-29T21:39:11.244Z,38.54
2022-08-29T21:44:14.874Z,37.87
2022-08-29T21:49:19.204Z,38.37
2022-08-29T21:54:20.548Z,38.87
2022-08-29T21:59:22.009Z,37.77
2022-08-29T22:04:28.661Z,38.67
2022-08-29T22:09:30.653Z,39.50
2022-08-29T22:14:50.689Z,38.75
2022-08-29T22:19:52.001Z,38.90
2022-08-29T22:24:53.374Z,38.99
2022-08-29T22:29:54.877Z,38.65
2022-08-29T22:34:56.196Z,38.99
2022-08-29T22:39:57.623Z,38.49
2022-08-29T22:45:03.648Z,38.47
2022-08-29T22:50:09.093Z,38.80
2022-08-29T22:55:13.802Z,38.58
2022-08-29T23:00:21.565Z,39.04
2022-08-29T23:05:24.746Z,38.57
2022-08-29T23:10:26.090Z,38.89
2022-08-29T23:15:27.581Z,39.66
2022-08-29T23:20:29.656Z,39.67
2022-08-29T23:25:30.990Z,40.09
2022-08-29T23:30:32.667Z,39.20
2022-08-29T23:35:33.977Z,39.18
2022-08-29T23:40:36.362Z,39.70
2022-08-29T23:45:38.300Z,39.78
2022-08-29T23:50:39.826Z,39.93
2022-08-29T23:55:41.597Z,40.28
